sensor_id;sensor_type;location;lat;lon;timestamp;pressure;altitude;pressure_sealevel;temperature;humidity
72428;BME280;60419;48.880;18.036;2022-11-30T00:02:29;99733.22;;;0.30;70.91
72428;BME280;60419;48.880;18.036;2022-11-30T00:05:15;99734.25;;;0.66;70.41
72428;BME280;60419;48.880;18.036;2022-11-30T00:08:00;99726.50;;;0.27;71.46
72428;BME280;60419;48.880;18.036;2022-11-30T00:10:46;99722.69;;;0.23;71.73
72428;BME280;60419;48.880;18.036;2022-11-30T00:13:31;99718.31;;;0.29;71.27
72428;BME280;60419;48.880;18.036;2022-11-30T00:16:16;99730.63;;;0.60;70.53
72428;BME280;60419;48.880;18.036;2022-11-30T00:19:02;99728.59;;;0.92;69.13
72428;BME280;60419;48.880;18.036;2022-11-30T00:21:47;99732.84;;;1.12;68.33
72428;BME280;60419;48.880;18.036;2022-11-30T00:24:33;99742.44;;;1.13;67.94
72428;BME280;60419;48.880;18.036;2022-11-30T00:27:18;99746.78;;;0.77;69.38
72428;BME280;60419;48.880;18.036;2022-11-30T00:30:04;99733.81;;;0.50;70.12
72428;BME280;60419;48.880;18.036;2022-11-30T00:32:55;99679.50;;;0.09;70.15
72428;BME280;60419;48.880;18.036;2022-11-30T00:35:41;99745.03;;;0.71;69.74
72428;BME280;60419;48.880;18.036;2022-11-30T00:38:26;99747.09;;;0.69;70.48
72428;BME280;60419;48.880;18.036;2022-11-30T00:41:12;99741.78;;;0.69;69.93
72428;BME280;60419;48.880;18.036;2022-11-30T00:43:57;99742.69;;;0.44;71.00
72428;BME280;60419;48.880;18.036;2022-11-30T00:46:42;99748.59;;;0.46;71.33
72428;BME280;60419;48.880;18.036;2022-11-30T00:49:28;99754.88;;;1.01;69.09
72428;BME280;60419;48.880;18.036;2022-11-30T00:52:13;99760.59;;;1.16;68.55
72428;BME280;60419;48.880;18.036;2022-11-30T00:54:59;99753.06;;;1.13;69.67
72428;BME280;60419;48.880;18.036;2022-11-30T00:57:44;99750.91;;;0.91;69.51
72428;BME280;60419;48.880;18.036;2022-11-30T01:00:29;99749.94;;;1.04;69.25
72428;BME280;60419;48.880;18.036;2022-11-30T01:03:15;99748.41;;;1.38;68.32
72428;BME280;60419;48.880;18.036;2022-11-30T01:06:05;99747.63;;;1.08;68.99
72428;BME280;60419;48.880;18.036;2022-11-30T01:08:51;99748.03;;;1.23;68.71
72428;BME280;60419;48.880;18.036;2022-11-30T01:11:37;99746.69;;;1.32;68.59
72428;BME280;60419;48.880;18.036;2022-11-30T01:14:22;99731.97;;;1.30;68.79
72428;BME280;60419;48.880;18.036;2022-11-30T01:17:08;99740.09;;;1.05;68.59
72428;BME280;60419;48.880;18.036;2022-11-30T01:19:53;99710.25;;;0.72;69.53
72428;BME280;60419;48.880;18.036;2022-11-30T01:22:38;99743.88;;;1.27;68.34
72428;BME280;60419;48.880;18.036;2022-11-30T01:25:24;99738.66;;;0.90;69.53
72428;BME280;60419;48.880;18.036;2022-11-30T01:28:09;99751.50;;;0.93;69.45
72428;BME280;60419;48.880;18.036;2022-11-30T01:30:59;99758.03;;;0.61;70.53
72428;BME280;60419;48.880;18.036;2022-11-30T01:33:49;99763.53;;;0.04;72.09
72428;BME280;60419;48.880;18.036;2022-11-30T01:36:35;99761.16;;;0.39;71.26
72428;BME280;60419;48.880;18.036;2022-11-30T01:39:22;99746.31;;;0.31;70.67
72428;BME280;60419;48.880;18.036;2022-11-30T01:42:16;99761.88;;;0.09;72.25
72428;BME280;60419;48.880;18.036;2022-11-30T01:45:04;99757.88;;;0.37;70.97
72428;BME280;60419;48.880;18.036;2022-11-30T01:47:54;99755.25;;;-0.06;72.75
72428;BME280;60419;48.880;18.036;2022-11-30T01:50:41;99765.94;;;0.30;71.12
72428;BME280;60419;48.880;18.036;2022-11-30T01:53:28;99753.03;;;-0.09;71.78
72428;BME280;60419;48.880;18.036;2022-11-30T01:56:13;99746.88;;;-0.28;73.00
72428;BME280;60419;48.880;18.036;2022-11-30T01:58:59;99741.88;;;-0.18;72.31
72428;BME280;60419;48.880;18.036;2022-11-30T02:01:44;99767.53;;;0.13;71.79
72428;BME280;60419;48.880;18.036;2022-11-30T02:04:32;99767.94;;;-0.33;73.73
72428;BME280;60419;48.880;18.036;2022-11-30T02:07:19;99757.78;;;-0.68;74.04
72428;BME280;60419;48.880;18.036;2022-11-30T02:10:05;99778.03;;;-0.42;74.16
72428;BME280;60419;48.880;18.036;2022-11-30T02:16:14;99774.81;;;-0.01;72.88
72428;BME280;60419;48.880;18.036;2022-11-30T02:31:25;99759.97;;;-0.33;73.00
72428;BME280;60419;48.880;18.036;2022-11-30T02:34:14;99770.41;;;0.12;72.58
72428;BME280;60419;48.880;18.036;2022-11-30T02:37:03;99760.44;;;-0.43;73.75
72428;BME280;60419;48.880;18.036;2022-11-30T02:39:50;99716.94;;;-0.67;73.63
72428;BME280;60419;48.880;18.036;2022-11-30T02:42:36;99711.59;;;-0.36;73.88
72428;BME280;60419;48.880;18.036;2022-11-30T02:45:34;99746.19;;;0.20;71.58
72428;BME280;60419;48.880;18.036;2022-11-30T02:48:31;99743.84;;;0.12;71.82
72428;BME280;60419;48.880;18.036;2022-11-30T02:51:24;99710.47;;;-1.48;77.10
72428;BME280;60419;48.880;18.036;2022-11-30T02:54:11;99720.09;;;-1.15;76.94
72428;BME280;60419;48.880;18.036;2022-11-30T02:56:56;99758.56;;;-0.36;74.88
72428;BME280;60419;48.880;18.036;2022-11-30T02:59:42;99741.94;;;0.19;73.00
72428;BME280;60419;48.880;18.036;2022-11-30T03:02:27;99754.03;;;0.15;72.92
72428;BME280;60419;48.880;18.036;2022-11-30T03:05:13;99736.31;;;0.45;71.53
72428;BME280;60419;48.880;18.036;2022-11-30T03:07:58;99732.03;;;0.07;71.84
72428;BME280;60419;48.880;18.036;2022-11-30T03:10:43;99733.38;;;-0.27;72.79
72428;BME280;60419;48.880;18.036;2022-11-30T03:13:33;99738.78;;;-0.40;73.32
72428;BME280;60419;48.880;18.036;2022-11-30T03:16:18;99743.16;;;-0.02;72.62
72428;BME280;60419;48.880;18.036;2022-11-30T03:19:04;99739.34;;;0.12;71.89
72428;BME280;60419;48.880;18.036;2022-11-30T03:21:49;99743.34;;;0.21;71.15
72428;BME280;60419;48.880;18.036;2022-11-30T03:24:35;99741.41;;;0.10;72.11
72428;BME280;60419;48.880;18.036;2022-11-30T03:27:20;99755.16;;;0.07;71.70
72428;BME280;60419;48.880;18.036;2022-11-30T03:30:07;99757.50;;;0.15;71.03
72428;BME280;60419;48.880;18.036;2022-11-30T03:32:52;99770.63;;;0.10;71.53
72428;BME280;60419;48.880;18.036;2022-11-30T03:35:38;99770.06;;;0.26;71.21
72428;BME280;60419;48.880;18.036;2022-11-30T03:38:23;99768.06;;;0.40;70.88
72428;BME280;60419;48.880;18.036;2022-11-30T03:41:14;99764.41;;;0.60;70.17
72428;BME280;60419;48.880;18.036;2022-11-30T03:44:00;99769.56;;;0.73;69.87
72428;BME280;60419;48.880;18.036;2022-11-30T03:46:46;99768.38;;;0.69;69.26
72428;BME280;60419;48.880;18.036;2022-11-30T03:49:31;99780.72;;;0.63;69.36
72428;BME280;60419;48.880;18.036;2022-11-30T03:52:16;99778.47;;;0.23;70.09
72428;BME280;60419;48.880;18.036;2022-11-30T03:55:02;99766.59;;;0.26;70.15
72428;BME280;60419;48.880;18.036;2022-11-30T03:57:48;99777.53;;;-0.07;71.58
72428;BME280;60419;48.880;18.036;2022-11-30T04:00:33;99770.66;;;0.47;70.28
72428;BME280;60419;48.880;18.036;2022-11-30T04:03:19;99769.13;;;0.58;69.66
72428;BME280;60419;48.880;18.036;2022-11-30T04:06:05;99769.56;;;0.55;69.41
72428;BME280;60419;48.880;18.036;2022-11-30T04:08:51;99778.50;;;0.60;69.56
72428;BME280;60419;48.880;18.036;2022-11-30T04:11:36;99739.63;;;0.41;69.50
72428;BME280;60419;48.880;18.036;2022-11-30T04:14:22;99768.53;;;0.37;70.89
72428;BME280;60419;48.880;18.036;2022-11-30T04:17:07;99768.44;;;0.25;71.01
72428;BME280;60419;48.880;18.036;2022-11-30T04:19:52;99770.94;;;0.02;72.21
72428;BME280;60419;48.880;18.036;2022-11-30T04:22:38;99758.84;;;0.24;71.69
72428;BME280;60419;48.880;18.036;2022-11-30T04:25:24;99765.41;;;0.22;72.36
72428;BME280;60419;48.880;18.036;2022-11-30T04:28:10;99728.75;;;0.30;71.23
72428;BME280;60419;48.880;18.036;2022-11-30T04:30:55;99755.63;;;-0.53;73.67
72428;BME280;60419;48.880;18.036;2022-11-30T04:33:41;99748.69;;;0.15;72.44
72428;BME280;60419;48.880;18.036;2022-11-30T04:36:26;99749.28;;;-0.02;72.64
72428;BME280;60419;48.880;18.036;2022-11-30T04:39:11;99748.00;;;0.26;71.45
72428;BME280;60419;48.880;18.036;2022-11-30T04:41:57;99737.72;;;0.29;70.75
72428;BME280;60419;48.880;18.036;2022-11-30T04:44:42;99756.97;;;0.06;71.50
72428;BME280;60419;48.880;18.036;2022-11-30T04:47:27;99762.78;;;-0.28;72.86
72428;BME280;60419;48.880;18.036;2022-11-30T04:50:13;99755.72;;;0.09;71.40
72428;BME280;60419;48.880;18.036;2022-11-30T04:52:58;99754.69;;;0.10;72.28
72428;BME280;60419;48.880;18.036;2022-11-30T04:55:44;99753.47;;;0.31;71.02
72428;BME280;60419;48.880;18.036;2022-11-30T04:58:29;99754.09;;;0.08;71.70
72428;BME280;60419;48.880;18.036;2022-11-30T05:01:14;99749.72;;;-0.05;72.74
72428;BME280;60419;48.880;18.036;2022-11-30T05:04:00;99746.28;;;0.13;71.03
72428;BME280;60419;48.880;18.036;2022-11-30T05:06:45;99754.72;;;0.28;70.76
72428;BME280;60419;48.880;18.036;2022-11-30T05:09:31;99759.09;;;-0.27;73.28
72428;BME280;60419;48.880;18.036;2022-11-30T05:12:17;99757.16;;;-0.14;72.53
72428;BME280;60419;48.880;18.036;2022-11-30T05:15:02;99765.91;;;0.12;71.95
72428;BME280;60419;48.880;18.036;2022-11-30T05:17:48;99755.53;;;0.29;71.41
72428;BME280;60419;48.880;18.036;2022-11-30T05:20:33;99760.13;;;-0.03;72.53
72428;BME280;60419;48.880;18.036;2022-11-30T05:23:19;99762.00;;;0.15;71.97
72428;BME280;60419;48.880;18.036;2022-11-30T05:26:05;99778.78;;;0.15;71.69
72428;BME280;60419;48.880;18.036;2022-11-30T05:28:50;99779.09;;;0.25;71.62
72428;BME280;60419;48.880;18.036;2022-11-30T05:31:37;99769.53;;;0.18;72.16
72428;BME280;60419;48.880;18.036;2022-11-30T05:34:22;99771.25;;;0.30;71.13
72428;BME280;60419;48.880;18.036;2022-11-30T05:37:08;99778.72;;;0.40;70.45
72428;BME280;60419;48.880;18.036;2022-11-30T05:39:53;99779.50;;;0.41;71.53
72428;BME280;60419;48.880;18.036;2022-11-30T05:42:38;99781.94;;;0.24;71.79
72428;BME280;60419;48.880;18.036;2022-11-30T05:45:24;99765.22;;;0.60;70.72
72428;BME280;60419;48.880;18.036;2022-11-30T05:48:10;99771.88;;;1.00;69.74
72428;BME280;60419;48.880;18.036;2022-11-30T05:51:06;99769.69;;;0.78;69.40
72428;BME280;60419;48.880;18.036;2022-11-30T05:53:52;99760.28;;;0.94;68.93
72428;BME280;60419;48.880;18.036;2022-11-30T05:56:38;99770.22;;;0.68;70.11
72428;BME280;60419;48.880;18.036;2022-11-30T05:59:24;99771.13;;;0.62;70.75
72428;BME280;60419;48.880;18.036;2022-11-30T06:02:09;99783.94;;;0.84;70.21
72428;BME280;60419;48.880;18.036;2022-11-30T06:04:55;99794.91;;;0.57;70.30
72428;BME280;60419;48.880;18.036;2022-11-30T06:07:40;99804.41;;;-0.22;73.89
72428;BME280;60419;48.880;18.036;2022-11-30T06:10:25;99796.06;;;-0.01;73.53
72428;BME280;60419;48.880;18.036;2022-11-30T06:13:11;99791.72;;;0.05;73.66
72428;BME280;60419;48.880;18.036;2022-11-30T06:16:01;99789.94;;;0.61;71.62
72428;BME280;60419;48.880;18.036;2022-11-30T06:18:46;99790.28;;;0.46;71.87
72428;BME280;60419;48.880;18.036;2022-11-30T06:21:32;99789.63;;;0.87;72.34
72428;BME280;60419;48.880;18.036;2022-11-30T06:24:17;99796.13;;;0.91;70.62
72428;BME280;60419;48.880;18.036;2022-11-30T06:27:02;99796.66;;;0.82;70.88
72428;BME280;60419;48.880;18.036;2022-11-30T06:29:48;99798.47;;;1.00;70.19
72428;BME280;60419;48.880;18.036;2022-11-30T06:32:33;99801.25;;;0.93;70.19
72428;BME280;60419;48.880;18.036;2022-11-30T06:35:18;99787.59;;;1.19;69.26
72428;BME280;60419;48.880;18.036;2022-11-30T06:38:04;99801.66;;;1.38;68.91
72428;BME280;60419;48.880;18.036;2022-11-30T06:40:49;99801.25;;;1.23;68.73
72428;BME280;60419;48.880;18.036;2022-11-30T06:43:36;99797.72;;;0.62;69.83
72428;BME280;60419;48.880;18.036;2022-11-30T06:46:21;99764.16;;;0.43;70.15
72428;BME280;60419;48.880;18.036;2022-11-30T06:49:08;99780.75;;;0.38;70.98
72428;BME280;60419;48.880;18.036;2022-11-30T06:51:54;99789.50;;;0.45;71.00
72428;BME280;60419;48.880;18.036;2022-11-30T06:54:40;99792.53;;;0.49;71.40
72428;BME280;60419;48.880;18.036;2022-11-30T06:57:29;99800.56;;;0.61;70.62
72428;BME280;60419;48.880;18.036;2022-11-30T07:00:15;99804.25;;;0.96;69.48
72428;BME280;60419;48.880;18.036;2022-11-30T07:03:00;99809.91;;;0.70;70.95
72428;BME280;60419;48.880;18.036;2022-11-30T07:05:46;99810.09;;;0.87;70.63
72428;BME280;60419;48.880;18.036;2022-11-30T07:08:31;99819.53;;;0.46;71.55
72428;BME280;60419;48.880;18.036;2022-11-30T07:11:17;99828.28;;;0.09;72.69
72428;BME280;60419;48.880;18.036;2022-11-30T07:14:02;99824.81;;;0.52;71.77
72428;BME280;60419;48.880;18.036;2022-11-30T07:16:47;99824.75;;;0.59;71.47
72428;BME280;60419;48.880;18.036;2022-11-30T07:19:33;99820.53;;;0.70;71.42
72428;BME280;60419;48.880;18.036;2022-11-30T07:22:18;99826.13;;;1.17;70.37
72428;BME280;60419;48.880;18.036;2022-11-30T07:25:04;99830.63;;;0.98;70.45
72428;BME280;60419;48.880;18.036;2022-11-30T07:28:08;99827.25;;;0.91;71.18
72428;BME280;60419;48.880;18.036;2022-11-30T07:30:54;99826.81;;;1.24;70.02
72428;BME280;60419;48.880;18.036;2022-11-30T07:33:39;99829.84;;;1.58;68.25
72428;BME280;60419;48.880;18.036;2022-11-30T07:36:25;99804.19;;;1.63;66.82
72428;BME280;60419;48.880;18.036;2022-11-30T07:39:12;99811.81;;;1.30;68.48
72428;BME280;60419;48.880;18.036;2022-11-30T07:41:57;99816.31;;;1.59;68.23
72428;BME280;60419;48.880;18.036;2022-11-30T07:44:43;99814.25;;;1.31;68.28
72428;BME280;60419;48.880;18.036;2022-11-30T07:47:28;99815.81;;;1.21;68.76
72428;BME280;60419;48.880;18.036;2022-11-30T07:50:14;99809.09;;;1.18;68.63
72428;BME280;60419;48.880;18.036;2022-11-30T07:52:59;99783.47;;;1.05;68.36
72428;BME280;60419;48.880;18.036;2022-11-30T07:55:44;99813.03;;;1.46;67.86
72428;BME280;60419;48.880;18.036;2022-11-30T07:58:30;99818.81;;;1.43;67.83
72428;BME280;60419;48.880;18.036;2022-11-30T08:01:18;99820.81;;;1.59;67.41
72428;BME280;60419;48.880;18.036;2022-11-30T08:04:05;99821.34;;;1.91;67.68
72428;BME280;60419;48.880;18.036;2022-11-30T08:06:52;99825.88;;;1.91;68.56
72428;BME280;60419;48.880;18.036;2022-11-30T08:09:38;99823.06;;;1.74;68.80
72428;BME280;60419;48.880;18.036;2022-11-30T08:12:23;99811.78;;;1.00;68.89
72428;BME280;60419;48.880;18.036;2022-11-30T08:15:09;99818.44;;;1.39;67.60
72428;BME280;60419;48.880;18.036;2022-11-30T08:17:54;99821.97;;;1.51;68.71
72428;BME280;60419;48.880;18.036;2022-11-30T08:20:40;99834.53;;;1.32;70.53
72428;BME280;60419;48.880;18.036;2022-11-30T08:23:34;99818.22;;;1.40;70.57
72428;BME280;60419;48.880;18.036;2022-11-30T08:26:38;99822.19;;;2.15;67.98
72428;BME280;60419;48.880;18.036;2022-11-30T08:29:23;99805.06;;;2.11;67.81
72428;BME280;60419;48.880;18.036;2022-11-30T08:32:08;99823.47;;;2.48;66.75
72428;BME280;60419;48.880;18.036;2022-11-30T08:34:54;99816.53;;;2.35;65.92
72428;BME280;60419;48.880;18.036;2022-11-30T08:37:39;99825.44;;;2.17;66.17
72428;BME280;60419;48.880;18.036;2022-11-30T08:40:25;99825.44;;;2.17;66.67
72428;BME280;60419;48.880;18.036;2022-11-30T08:43:10;99826.72;;;2.15;66.55
72428;BME280;60419;48.880;18.036;2022-11-30T08:45:55;99797.50;;;1.96;67.02
72428;BME280;60419;48.880;18.036;2022-11-30T08:48:41;99823.34;;;2.19;67.14
72428;BME280;60419;48.880;18.036;2022-11-30T08:51:26;99830.66;;;2.12;67.25
72428;BME280;60419;48.880;18.036;2022-11-30T08:54:12;99831.56;;;1.94;68.27
72428;BME280;60419;48.880;18.036;2022-11-30T08:56:57;99822.53;;;2.31;67.21
72428;BME280;60419;48.880;18.036;2022-11-30T08:59:43;99826.25;;;2.18;66.00
72428;BME280;60419;48.880;18.036;2022-11-30T09:02:29;99823.41;;;1.77;66.51
72428;BME280;60419;48.880;18.036;2022-11-30T09:05:14;99817.44;;;1.22;67.61
72428;BME280;60419;48.880;18.036;2022-11-30T09:07:59;99822.75;;;1.94;66.93
72428;BME280;60419;48.880;18.036;2022-11-30T09:10:45;99824.84;;;2.03;65.54
72428;BME280;60419;48.880;18.036;2022-11-30T09:13:30;99818.22;;;1.94;64.99
72428;BME280;60419;48.880;18.036;2022-11-30T09:16:17;99830.44;;;2.37;64.61
72428;BME280;60419;48.880;18.036;2022-11-30T09:19:03;99821.75;;;2.42;64.62
72428;BME280;60419;48.880;18.036;2022-11-30T09:21:48;99824.09;;;2.90;63.38
72428;BME280;60419;48.880;18.036;2022-11-30T09:24:34;99816.00;;;2.85;62.95
72428;BME280;60419;48.880;18.036;2022-11-30T09:27:19;99821.25;;;1.98;65.08
72428;BME280;60419;48.880;18.036;2022-11-30T09:30:05;99821.38;;;2.03;65.03
72428;BME280;60419;48.880;18.036;2022-11-30T09:32:51;99833.28;;;2.83;63.53
72428;BME280;60419;48.880;18.036;2022-11-30T09:35:36;99823.94;;;3.09;62.43
72428;BME280;60419;48.880;18.036;2022-11-30T09:38:22;99805.50;;;3.07;62.17
72428;BME280;60419;48.880;18.036;2022-11-30T09:50:29;99813.50;;;3.65;60.96
72428;BME280;60419;48.880;18.036;2022-11-30T09:53:43;99813.00;;;3.68;60.37
72428;BME280;60419;48.880;18.036;2022-11-30T09:56:31;99805.44;;;3.19;61.71
72428;BME280;60419;48.880;18.036;2022-11-30T09:59:24;99806.25;;;3.20;61.30
72428;BME280;60419;48.880;18.036;2022-11-30T10:02:15;99797.03;;;3.56;60.86
72428;BME280;60419;48.880;18.036;2022-11-30T10:05:01;99796.13;;;3.50;60.27
72428;BME280;60419;48.880;18.036;2022-11-30T10:14:00;99795.47;;;3.43;60.96
72428;BME280;60419;48.880;18.036;2022-11-30T10:17:07;99792.97;;;3.36;60.86
72428;BME280;60419;48.880;18.036;2022-11-30T10:26:40;99773.56;;;3.12;62.47
72428;BME280;60419;48.880;18.036;2022-11-30T10:29:32;99771.47;;;3.60;60.81
72428;BME280;60419;48.880;18.036;2022-11-30T10:32:21;99770.84;;;3.24;61.42
72428;BME280;60419;48.880;18.036;2022-11-30T10:35:18;99764.69;;;2.95;62.79
72428;BME280;60419;48.880;18.036;2022-11-30T10:38:14;99756.94;;;3.39;60.79
72428;BME280;60419;48.880;18.036;2022-11-30T10:41:07;99765.53;;;3.41;60.55
72428;BME280;60419;48.880;18.036;2022-11-30T10:44:09;99763.34;;;3.38;60.77
72428;BME280;60419;48.880;18.036;2022-11-30T10:47:19;99758.63;;;3.00;62.38
72428;BME280;60419;48.880;18.036;2022-11-30T10:50:06;99754.97;;;3.80;59.79
72428;BME280;60419;48.880;18.036;2022-11-30T10:52:55;99758.44;;;3.80;59.99
72428;BME280;60419;48.880;18.036;2022-11-30T10:55:44;99755.69;;;4.31;58.57
72428;BME280;60419;48.880;18.036;2022-11-30T11:01:40;99750.25;;;4.43;57.59
72428;BME280;60419;48.880;18.036;2022-11-30T11:04:27;99740.84;;;4.01;57.97
72428;BME280;60419;48.880;18.036;2022-11-30T11:07:13;99743.19;;;3.98;58.82
72428;BME280;60419;48.880;18.036;2022-11-30T11:10:00;99741.38;;;4.20;58.35
72428;BME280;60419;48.880;18.036;2022-11-30T11:12:51;99749.88;;;3.95;58.56
72428;BME280;60419;48.880;18.036;2022-11-30T11:15:37;99740.47;;;3.76;59.34
72428;BME280;60419;48.880;18.036;2022-11-30T11:18:25;99734.44;;;3.35;60.92
72428;BME280;60419;48.880;18.036;2022-11-30T11:23:56;99727.56;;;3.39;61.23
72428;BME280;60419;48.880;18.036;2022-11-30T11:26:48;99734.38;;;3.80;60.39
72428;BME280;60419;48.880;18.036;2022-11-30T11:29:35;99726.91;;;3.99;59.80
72428;BME280;60419;48.880;18.036;2022-11-30T11:32:22;99729.78;;;3.93;59.79
72428;BME280;60419;48.880;18.036;2022-11-30T11:38:31;99727.41;;;3.96;59.73
72428;BME280;60419;48.880;18.036;2022-11-30T11:41:32;99734.50;;;4.46;57.99
72428;BME280;60419;48.880;18.036;2022-11-30T11:44:21;99737.31;;;4.35;57.66
72428;BME280;60419;48.880;18.036;2022-11-30T11:47:21;99739.06;;;4.46;57.83
72428;BME280;60419;48.880;18.036;2022-11-30T11:53:19;99731.75;;;4.85;57.04
72428;BME280;60419;48.880;18.036;2022-11-30T12:02:38;99721.25;;;4.57;56.91
72428;BME280;60419;48.880;18.036;2022-11-30T12:05:43;99707.41;;;3.48;59.70
72428;BME280;60419;48.880;18.036;2022-11-30T12:08:45;99719.34;;;4.13;59.04
72428;BME280;60419;48.880;18.036;2022-11-30T12:11:46;99706.63;;;4.64;57.33
72428;BME280;60419;48.880;18.036;2022-11-30T12:14:33;99718.19;;;4.92;55.93
72428;BME280;60419;48.880;18.036;2022-11-30T12:23:30;99727.00;;;5.74;54.83
72428;BME280;60419;48.880;18.036;2022-11-30T12:26:42;99725.44;;;6.20;52.59
72428;BME280;60419;48.880;18.036;2022-11-30T12:33:06;99722.97;;;6.14;52.89
72428;BME280;60419;48.880;18.036;2022-11-30T12:36:02;99719.78;;;6.22;53.55
72428;BME280;60419;48.880;18.036;2022-11-30T12:39:04;99715.41;;;6.06;53.73
72428;BME280;60419;48.880;18.036;2022-11-30T12:41:57;99713.09;;;6.24;53.45
72428;BME280;60419;48.880;18.036;2022-11-30T12:45:09;99708.44;;;6.05;53.76
72428;BME280;60419;48.880;18.036;2022-11-30T12:56:55;99704.97;;;6.62;53.13
72428;BME280;60419;48.880;18.036;2022-11-30T13:05:57;99689.50;;;7.15;51.95
72428;BME280;60419;48.880;18.036;2022-11-30T13:08:55;99692.91;;;6.64;52.91
72428;BME280;60419;48.880;18.036;2022-11-30T13:11:50;99695.66;;;6.85;53.01
72428;BME280;60419;48.880;18.036;2022-11-30T13:14:39;99695.16;;;7.03;53.76
72428;BME280;60419;48.880;18.036;2022-11-30T13:17:25;99695.50;;;7.43;52.15
72428;BME280;60419;48.880;18.036;2022-11-30T13:26:51;99685.84;;;6.48;55.20
72428;BME280;60419;48.880;18.036;2022-11-30T13:29:58;99683.59;;;6.93;53.55
72428;BME280;60419;48.880;18.036;2022-11-30T13:32:48;99682.56;;;6.31;56.12
72428;BME280;60419;48.880;18.036;2022-11-30T13:35:52;99686.75;;;6.84;54.87
72428;BME280;60419;48.880;18.036;2022-11-30T13:38:38;99677.06;;;6.73;54.21
72428;BME280;60419;48.880;18.036;2022-11-30T13:41:24;99678.19;;;6.82;55.16
72428;BME280;60419;48.880;18.036;2022-11-30T13:44:29;99680.09;;;7.07;54.36
72428;BME280;60419;48.880;18.036;2022-11-30T13:47:26;99673.69;;;7.19;54.06
72428;BME280;60419;48.880;18.036;2022-11-30T13:50:34;99679.22;;;6.76;56.12
72428;BME280;60419;48.880;18.036;2022-11-30T14:08:30;99676.59;;;5.71;58.60
72428;BME280;60419;48.880;18.036;2022-11-30T14:11:37;99677.13;;;6.15;57.38
72428;BME280;60419;48.880;18.036;2022-11-30T14:14:43;99666.84;;;6.65;56.50
72428;BME280;60419;48.880;18.036;2022-11-30T14:17:32;99666.59;;;6.77;55.74
72428;BME280;60419;48.880;18.036;2022-11-30T14:20:31;99665.88;;;7.07;54.94
72428;BME280;60419;48.880;18.036;2022-11-30T14:26:45;99670.50;;;7.42;53.75
72428;BME280;60419;48.880;18.036;2022-11-30T14:29:34;99666.72;;;7.43;55.02
72428;BME280;60419;48.880;18.036;2022-11-30T14:32:29;99665.13;;;7.47;54.20
72428;BME280;60419;48.880;18.036;2022-11-30T14:35:19;99658.34;;;7.14;55.59
72428;BME280;60419;48.880;18.036;2022-11-30T14:38:15;99662.91;;;6.93;56.04
72428;BME280;60419;48.880;18.036;2022-11-30T14:41:03;99663.06;;;6.61;56.47
72428;BME280;60419;48.880;18.036;2022-11-30T14:44:01;99660.16;;;6.73;56.51
72428;BME280;60419;48.880;18.036;2022-11-30T14:46:47;99667.72;;;6.96;56.38
72428;BME280;60419;48.880;18.036;2022-11-30T14:49:33;99659.78;;;6.38;58.18
72428;BME280;60419;48.880;18.036;2022-11-30T15:01:37;99654.03;;;7.08;55.61
72428;BME280;60419;48.880;18.036;2022-11-30T15:04:24;99652.44;;;7.02;55.58
72428;BME280;60419;48.880;18.036;2022-11-30T15:07:12;99666.66;;;6.97;55.89
72428;BME280;60419;48.880;18.036;2022-11-30T15:10:23;99670.16;;;6.98;56.50
72428;BME280;60419;48.880;18.036;2022-11-30T15:13:12;99661.56;;;7.01;56.37
72428;BME280;60419;48.880;18.036;2022-11-30T15:15:59;99669.91;;;7.09;56.17
72428;BME280;60419;48.880;18.036;2022-11-30T15:18:44;99663.19;;;7.12;55.71
72428;BME280;60419;48.880;18.036;2022-11-30T15:21:31;99663.72;;;6.99;56.15
72428;BME280;60419;48.880;18.036;2022-11-30T15:24:16;99663.91;;;6.77;56.18
72428;BME280;60419;48.880;18.036;2022-11-30T15:27:08;99666.66;;;7.07;54.94
72428;BME280;60419;48.880;18.036;2022-11-30T15:29:58;99669.31;;;6.92;56.46
72428;BME280;60419;48.880;18.036;2022-11-30T15:32:46;99676.56;;;6.86;56.11
72428;BME280;60419;48.880;18.036;2022-11-30T15:35:36;99671.78;;;7.04;55.21
72428;BME280;60419;48.880;18.036;2022-11-30T15:38:25;99672.84;;;7.13;55.61
72428;BME280;60419;48.880;18.036;2022-11-30T15:41:19;99671.16;;;6.71;55.78
72428;BME280;60419;48.880;18.036;2022-11-30T15:44:05;99673.91;;;6.92;55.73
72428;BME280;60419;48.880;18.036;2022-11-30T15:46:59;99671.00;;;7.14;54.89
72428;BME280;60419;48.880;18.036;2022-11-30T15:49:50;99676.84;;;6.85;56.24
72428;BME280;60419;48.880;18.036;2022-11-30T15:52:43;99661.69;;;5.48;58.92
72428;BME280;60419;48.880;18.036;2022-11-30T16:01:17;99677.56;;;5.27;61.26
72428;BME280;60419;48.880;18.036;2022-11-30T16:04:04;99674.63;;;4.97;61.86
72428;BME280;60419;48.880;18.036;2022-11-30T16:06:50;99675.97;;;5.26;61.63
72428;BME280;60419;48.880;18.036;2022-11-30T16:09:36;99679.72;;;5.57;59.48
72428;BME280;60419;48.880;18.036;2022-11-30T16:12:27;99681.75;;;5.83;58.58
72428;BME280;60419;48.880;18.036;2022-11-30T16:15:27;99679.75;;;6.05;59.41
72428;BME280;60419;48.880;18.036;2022-11-30T16:21:03;99674.50;;;6.26;57.99
72428;BME280;60419;48.880;18.036;2022-11-30T16:23:48;99674.03;;;6.44;57.21
72428;BME280;60419;48.880;18.036;2022-11-30T16:26:34;99664.06;;;5.82;58.72
72428;BME280;60419;48.880;18.036;2022-11-30T16:29:19;99671.16;;;6.03;58.31
72428;BME280;60419;48.880;18.036;2022-11-30T16:32:04;99675.97;;;5.26;60.51
72428;BME280;60419;48.880;18.036;2022-11-30T16:34:50;99674.38;;;4.98;61.29
72428;BME280;60419;48.880;18.036;2022-11-30T16:37:35;99664.50;;;4.77;61.25
72428;BME280;60419;48.880;18.036;2022-11-30T16:40:20;99668.59;;;4.62;62.34
72428;BME280;60419;48.880;18.036;2022-11-30T16:43:09;99646.44;;;4.67;62.45
72428;BME280;60419;48.880;18.036;2022-11-30T16:45:54;99668.38;;;4.64;62.42
72428;BME280;60419;48.880;18.036;2022-11-30T16:48:40;99672.97;;;4.68;62.76
72428;BME280;60419;48.880;18.036;2022-11-30T16:51:28;99664.19;;;4.29;64.05
72428;BME280;60419;48.880;18.036;2022-11-30T16:54:15;99680.50;;;4.72;62.91
72428;BME280;60419;48.880;18.036;2022-11-30T16:57:00;99672.41;;;4.44;63.29